createdAt,value
2023-04-25T00:01:38.620Z,7.93
2023-04-25T00:04:51.617Z,6.43
2023-04-25T00:08:04.991Z,5.82
2023-04-25T00:11:17.607Z,5.62
2023-04-25T00:14:30.693Z,7.35
2023-04-25T00:17:43.516Z,5.07
2023-04-25T00:20:56.301Z,8.38
2023-04-25T00:24:09.040Z,5.37
2023-04-25T00:27:21.459Z,8.57
2023-04-25T00:30:34.078Z,6.18
2023-04-25T00:33:46.432Z,5.40
2023-04-25T00:36:59.217Z,5.37
2023-04-25T00:40:12.073Z,5.32
2023-04-25T00:43:27.884Z,7.30
2023-04-25T00:46:40.876Z,7.07
2023-04-25T00:49:54.564Z,6.28
2023-04-25T00:53:07.183Z,5.53
2023-04-25T00:56:19.881Z,5.53
2023-04-25T00:59:32.528Z,5.50
2023-04-25T01:02:45.925Z,5.75
2023-04-25T01:05:58.512Z,7.35
2023-04-25T01:09:11.150Z,5.95
2023-04-25T01:12:24.116Z,5.05
2023-04-25T01:15:37.153Z,6.25
2023-04-25T01:18:49.566Z,5.07
2023-04-25T01:22:02.484Z,5.95
2023-04-25T01:25:15.703Z,8.00
2023-04-25T01:28:28.534Z,5.57
2023-04-25T01:31:40.935Z,6.55
2023-04-25T01:34:53.632Z,5.43
2023-04-25T01:38:05.974Z,4.70
2023-04-25T01:41:19.085Z,5.45
2023-04-25T01:44:31.457Z,5.15
2023-04-25T01:47:44.884Z,4.90
2023-04-25T01:50:57.372Z,5.80
2023-04-25T01:54:10.329Z,5.62
2023-04-25T01:57:22.955Z,6.87
2023-04-25T02:00:39.858Z,7.55
2023-04-25T02:03:52.962Z,7.07
2023-04-25T02:07:06.476Z,6.90
2023-04-25T02:10:20.335Z,7.55
2023-04-25T02:13:35.461Z,11.10
2023-04-25T02:16:48.368Z,6.97
2023-04-25T02:20:00.874Z,8.02
2023-04-25T02:23:13.600Z,8.23
2023-04-25T02:26:25.962Z,6.85
2023-04-25T02:29:39.053Z,7.43
2023-04-25T02:32:51.784Z,7.60
2023-04-25T02:36:04.440Z,8.27
2023-04-25T02:39:17.153Z,6.72
2023-04-25T02:42:29.590Z,8.07
2023-04-25T02:45:43.272Z,8.35
2023-04-25T02:48:55.616Z,6.30
2023-04-25T02:52:08.327Z,7.62
2023-04-25T02:55:20.831Z,7.75
2023-04-25T02:58:33.862Z,7.87
2023-04-25T03:01:46.357Z,7.35
2023-04-25T03:05:00.108Z,8.20
2023-04-25T03:08:13.062Z,7.28
2023-04-25T03:11:26.555Z,5.80
2023-04-25T03:14:39.161Z,6.72
2023-04-25T03:17:51.904Z,7.18
2023-04-25T03:21:04.272Z,5.57
2023-04-25T03:24:17.351Z,6.97
2023-04-25T03:27:29.738Z,5.15
2023-04-25T03:30:42.395Z,6.68
2023-04-25T03:33:55.544Z,5.78
2023-04-25T03:37:08.422Z,4.87
2023-04-25T03:40:21.519Z,4.55
2023-04-25T03:43:35.292Z,5.03
2023-04-25T03:46:48.077Z,4.43
2023-04-25T03:50:03.160Z,4.30
2023-04-25T03:53:15.884Z,4.37
2023-04-25T03:56:31.764Z,4.82
2023-04-25T03:59:45.482Z,5.75
2023-04-25T04:02:58.379Z,6.12
2023-04-25T04:06:11.769Z,5.30
2023-04-25T04:09:24.770Z,4.47
2023-04-25T04:12:37.837Z,4.95
2023-04-25T04:15:50.547Z,5.70
2023-04-25T04:19:03.642Z,4.45
2023-04-25T04:22:16.690Z,6.03
2023-04-25T04:25:29.652Z,6.85
2023-04-25T04:28:45.145Z,10.00
2023-04-25T04:31:58.117Z,6.10
2023-04-25T04:35:12.293Z,5.43
2023-04-25T04:38:26.417Z,6.68
2023-04-25T04:41:39.226Z,8.10
2023-04-25T04:44:53.246Z,7.32
2023-04-25T04:48:08.478Z,8.02
2023-04-25T04:51:21.969Z,5.78
2023-04-25T04:54:36.396Z,5.97
2023-04-25T04:57:49.924Z,6.80
2023-04-25T05:01:02.895Z,6.43
2023-04-25T05:04:16.031Z,5.85
2023-04-25T05:07:28.448Z,7.62
2023-04-25T05:10:43.280Z,5.80
2023-04-25T05:13:56.411Z,8.07
2023-04-25T05:17:11.142Z,6.22
2023-04-25T05:20:24.174Z,7.72
2023-04-25T05:23:37.257Z,6.95
2023-04-25T05:26:50.264Z,5.85
2023-04-25T05:30:07.060Z,7.00
2023-04-25T05:33:19.799Z,7.22
2023-04-25T05:36:33.503Z,8.65
2023-04-25T05:39:46.467Z,8.73
2023-04-25T05:42:59.111Z,7.35
2023-04-25T05:46:12.071Z,7.53
2023-04-25T05:49:24.756Z,9.18
2023-04-25T05:52:40.093Z,9.25
2023-04-25T05:55:53.276Z,9.48
2023-04-25T05:59:08.020Z,7.22
2023-04-25T06:02:21.898Z,7.57
2023-04-25T06:05:34.892Z,8.15
2023-04-25T06:08:47.358Z,7.85
2023-04-25T06:12:00.029Z,7.60
2023-04-25T06:15:24.372Z,8.20
2023-04-25T06:18:41.073Z,5.95
2023-04-25T06:21:53.565Z,7.22
2023-04-25T06:25:08.190Z,6.47
2023-04-25T06:28:23.655Z,9.05
2023-04-25T06:31:36.580Z,9.32
2023-04-25T06:34:49.055Z,5.47
2023-04-25T06:38:02.488Z,6.57
2023-04-25T06:41:16.017Z,6.53
2023-04-25T06:44:30.523Z,6.97
2023-04-25T06:47:44.033Z,7.32
2023-04-25T06:50:57.914Z,5.80
2023-04-25T06:54:10.455Z,5.22
2023-04-25T06:57:24.805Z,9.68
2023-04-25T07:00:37.600Z,7.85
2023-04-25T07:03:50.484Z,6.70
2023-04-25T07:07:05.905Z,8.32
2023-04-25T07:10:19.067Z,8.30
2023-04-25T07:13:31.553Z,9.68
2023-04-25T07:16:44.523Z,7.95
2023-04-25T07:19:58.240Z,9.07
2023-04-25T07:23:11.133Z,9.38
2023-04-25T07:26:23.703Z,9.90
2023-04-25T07:29:39.180Z,8.43
2023-04-25T07:32:51.765Z,9.00
2023-04-25T07:36:04.846Z,8.23
2023-04-25T07:39:17.359Z,9.50
2023-04-25T07:42:30.454Z,7.93
2023-04-25T07:45:44.300Z,9.57
2023-04-25T07:48:57.067Z,10.80
2023-04-25T07:52:09.933Z,9.70
2023-04-25T07:55:23.837Z,8.82
2023-04-25T07:58:36.749Z,10.00
2023-04-25T08:01:50.164Z,9.00
2023-04-25T08:05:03.898Z,8.13
2023-04-25T08:08:16.570Z,9.57
2023-04-25T08:11:29.757Z,10.32
2023-04-25T08:14:43.175Z,7.50
2023-04-25T08:17:57.220Z,11.20
2023-04-25T08:21:12.412Z,8.98
2023-04-25T08:24:25.385Z,10.05
2023-04-25T08:27:37.984Z,7.65
2023-04-25T08:30:51.591Z,7.12
2023-04-25T08:34:04.640Z,8.23
2023-04-25T08:37:17.553Z,7.97
2023-04-25T08:40:31.276Z,7.60
2023-04-25T08:43:45.246Z,11.63
2023-04-25T08:46:57.663Z,6.47
2023-04-25T08:50:10.919Z,7.12
2023-04-25T08:53:33.891Z,7.37
2023-04-25T08:56:47.924Z,7.12
2023-04-25T09:00:00.366Z,4.93
2023-04-25T09:03:13.759Z,4.10
2023-04-25T09:06:28.764Z,4.37
2023-04-25T09:09:42.943Z,6.22
2023-04-25T09:13:13.581Z,6.87
2023-04-25T09:16:28.157Z,4.15
2023-04-25T09:19:42.760Z,3.50
2023-04-25T09:23:06.462Z,4.45
2023-04-25T09:26:22.213Z,4.03
2023-04-25T09:29:36.202Z,4.82
2023-04-25T09:37:13.684Z,3.78
2023-04-25T09:40:34.652Z,4.43
2023-04-25T09:43:48.206Z,3.67
2023-04-25T09:47:01.186Z,5.03
2023-04-25T09:50:15.257Z,5.25
2023-04-25T09:53:29.723Z,3.53
2023-04-25T09:56:44.412Z,6.15
2023-04-25T09:59:57.601Z,3.50
2023-04-25T10:03:10.485Z,3.28
2023-04-25T10:06:24.191Z,3.60
2023-04-25T10:09:40.898Z,5.80
2023-04-25T10:12:59.416Z,6.68
2023-04-25T10:16:11.823Z,3.70
2023-04-25T10:19:25.495Z,3.30
2023-04-25T10:22:43.972Z,3.58
2023-04-25T10:25:56.999Z,2.85
2023-04-25T10:29:09.760Z,3.28
2023-04-25T10:32:22.581Z,4.93
2023-04-25T10:35:36.229Z,2.90
2023-04-25T10:38:49.311Z,5.18
2023-04-25T10:42:03.490Z,2.80
2023-04-25T10:45:16.360Z,3.80
2023-04-25T10:48:31.975Z,3.10
2023-04-25T10:55:04.548Z,2.55
2023-04-25T10:58:23.434Z,2.65
2023-04-25T11:01:49.130Z,3.50
2023-04-25T11:05:01.871Z,4.07
2023-04-25T11:08:15.102Z,3.28
2023-04-25T11:11:28.077Z,2.85
2023-04-25T11:17:58.494Z,3.25
2023-04-25T11:21:11.522Z,2.55
2023-04-25T11:24:31.072Z,3.83
2023-04-25T11:27:52.929Z,1.73
2023-04-25T11:31:05.655Z,2.08
2023-04-25T11:34:21.346Z,2.90
2023-04-25T11:37:35.258Z,2.17
2023-04-25T11:40:52.149Z,1.70
2023-04-25T11:44:05.448Z,2.37
2023-04-25T11:47:17.850Z,1.25
2023-04-25T11:50:31.750Z,1.87
2023-04-25T11:53:45.738Z,1.20
2023-04-25T11:56:58.413Z,1.75
2023-04-25T12:00:13.577Z,1.40
2023-04-25T12:03:32.337Z,1.92
2023-04-25T12:06:49.585Z,1.75
2023-04-25T12:10:09.063Z,1.00
2023-04-25T12:13:29.205Z,1.12
2023-04-25T12:16:45.829Z,2.20
2023-04-25T12:19:58.779Z,1.80
2023-04-25T12:23:12.635Z,2.28
2023-04-25T12:26:26.502Z,4.25
2023-04-25T12:29:49.083Z,3.12
2023-04-25T12:33:02.633Z,1.20
2023-04-25T12:36:15.038Z,1.77
2023-04-25T12:39:27.725Z,1.25
2023-04-25T12:42:40.100Z,1.55
2023-04-25T12:45:53.881Z,2.05
2023-04-25T12:49:17.625Z,1.12
2023-04-25T12:52:31.689Z,1.42
2023-04-25T12:55:44.154Z,1.35
2023-04-25T12:58:58.345Z,1.23
2023-04-25T13:02:10.837Z,6.20
2023-04-25T13:05:23.613Z,1.02
2023-04-25T13:08:37.756Z,3.17
2023-04-25T13:11:50.473Z,0.95
2023-04-25T13:15:02.850Z,1.70
2023-04-25T13:18:16.251Z,1.35
2023-04-25T13:21:33.637Z,1.83
2023-04-25T13:24:46.297Z,1.15
2023-04-25T13:27:58.715Z,1.20
2023-04-25T13:31:11.377Z,1.98
2023-04-25T13:34:23.737Z,4.32
2023-04-25T13:37:39.010Z,1.50
2023-04-25T13:40:53.165Z,3.22
2023-04-25T13:44:05.833Z,2.92
2023-04-25T13:47:18.425Z,1.60
2023-04-25T13:50:31.328Z,2.15
2023-04-25T13:53:43.743Z,1.67
2023-04-25T13:56:59.614Z,1.95
2023-04-25T14:00:12.885Z,1.45
2023-04-25T14:03:27.188Z,1.58
2023-04-25T14:06:39.677Z,2.30
2023-04-25T14:09:52.352Z,1.95
2023-04-25T14:13:05.666Z,3.42
2023-04-25T14:16:18.411Z,2.05
2023-04-25T14:19:30.982Z,2.53
2023-04-25T14:22:44.795Z,2.28
2023-04-25T14:25:57.177Z,3.00
2023-04-25T14:29:10.084Z,2.35
2023-04-25T14:32:22.902Z,2.60
2023-04-25T14:35:36.393Z,2.10
2023-04-25T14:38:48.771Z,2.72
2023-04-25T14:42:01.508Z,2.42
2023-04-25T14:45:13.854Z,3.00
2023-04-25T14:48:26.882Z,1.75
2023-04-25T14:51:39.328Z,4.25
2023-04-25T14:54:52.750Z,3.10
2023-04-25T14:58:05.219Z,3.42
2023-04-25T15:01:18.168Z,4.07
2023-04-25T15:04:30.845Z,3.28
2023-04-25T15:07:44.214Z,2.45
2023-04-25T15:10:56.808Z,2.67
2023-04-25T15:14:09.699Z,3.45
2023-04-25T15:17:22.311Z,6.18
2023-04-25T15:20:35.334Z,5.20
2023-04-25T15:23:48.048Z,5.50
2023-04-25T15:27:00.921Z,6.18
2023-04-25T15:30:16.293Z,3.03
2023-04-25T15:33:29.306Z,3.62
2023-04-25T15:36:44.077Z,2.37
2023-04-25T15:40:14.691Z,3.67
2023-04-25T15:43:27.053Z,2.92
2023-04-25T15:46:40.077Z,5.45
2023-04-25T15:49:52.842Z,2.70
2023-04-25T15:53:07.301Z,4.30
2023-04-25T15:56:20.039Z,5.00
2023-04-25T15:59:32.736Z,12.25
2023-04-25T16:02:46.032Z,6.93
2023-04-25T16:05:58.747Z,6.00
2023-04-25T16:09:12.324Z,3.97
2023-04-25T16:12:25.044Z,4.47
2023-04-25T16:15:37.438Z,2.58
2023-04-25T16:18:50.455Z,3.33
2023-04-25T16:22:02.811Z,3.67
2023-04-25T16:25:15.525Z,3.15
2023-04-25T16:28:27.907Z,3.60
2023-04-25T16:31:41.772Z,3.90
2023-04-25T16:34:54.253Z,6.87
2023-04-25T16:38:06.948Z,4.40
2023-04-25T16:41:19.697Z,7.55
2023-04-25T16:44:32.379Z,4.68
2023-04-25T16:47:44.828Z,3.60
2023-04-25T16:50:57.544Z,5.70
2023-04-25T16:54:09.949Z,4.47
2023-04-25T16:57:23.455Z,14.63
2023-04-25T17:00:36.189Z,12.43
2023-04-25T17:03:49.233Z,10.70
2023-04-25T17:07:01.680Z,15.48
2023-04-25T17:10:14.276Z,10.43
2023-04-25T17:13:30.930Z,11.90
2023-04-25T17:16:44.493Z,19.80
2023-04-25T17:19:57.081Z,13.18
2023-04-25T17:23:09.839Z,8.88
2023-04-25T17:26:22.537Z,7.62
2023-04-25T17:29:35.298Z,9.45
2023-04-25T17:32:47.701Z,6.85
2023-04-25T17:36:00.485Z,8.25
2023-04-25T17:39:14.772Z,7.93
2023-04-25T17:42:28.152Z,9.50
2023-04-25T17:45:40.597Z,12.65
2023-04-25T17:48:53.651Z,9.77
2023-04-25T17:52:06.665Z,9.85
2023-04-25T17:55:19.686Z,13.00
2023-04-25T17:58:32.091Z,11.30
2023-04-25T18:01:47.818Z,12.27
2023-04-25T18:05:00.625Z,12.65
2023-04-25T18:08:13.694Z,7.93
2023-04-25T18:11:26.356Z,12.82
2023-04-25T18:14:39.790Z,13.02
2023-04-25T18:17:52.496Z,10.75
2023-04-25T18:21:07.629Z,13.85
2023-04-25T18:24:24.308Z,10.75
2023-04-25T18:27:40.145Z,10.73
2023-04-25T18:30:52.870Z,13.75
2023-04-25T18:34:05.244Z,11.05
2023-04-25T18:37:18.050Z,14.05
2023-04-25T18:40:31.156Z,13.65
2023-04-25T18:43:44.530Z,10.27
2023-04-25T18:46:57.061Z,10.50
2023-04-25T18:50:10.343Z,11.73
2023-04-25T18:53:22.747Z,15.25
2023-04-25T18:56:35.778Z,11.73
2023-04-25T18:59:48.182Z,12.20
2023-04-25T19:03:04.658Z,11.38
2023-04-25T19:06:17.507Z,10.60
2023-04-25T19:09:30.229Z,9.60
2023-04-25T19:12:42.669Z,9.95
2023-04-25T19:15:57.050Z,9.38
2023-04-25T19:19:09.536Z,11.00
2023-04-25T19:22:22.248Z,9.98
2023-04-25T19:25:34.726Z,9.60
2023-04-25T19:28:47.375Z,10.02
2023-04-25T19:31:59.998Z,13.35
2023-04-25T19:35:13.493Z,10.35
2023-04-25T19:38:25.867Z,11.43
2023-04-25T19:41:38.606Z,8.68
2023-04-25T19:44:51.571Z,9.05
2023-04-25T19:48:04.558Z,11.57
2023-04-25T19:51:16.949Z,8.95
2023-04-25T19:54:29.743Z,11.35
2023-04-25T19:57:42.074Z,11.73
2023-04-25T20:00:55.972Z,9.65
2023-04-25T20:04:08.606Z,9.68
2023-04-25T20:07:22.873Z,9.80
2023-04-25T20:10:35.544Z,9.35
2023-04-25T20:13:48.092Z,10.50
2023-04-25T20:17:00.762Z,9.18
2023-04-25T20:20:13.163Z,11.98
2023-04-25T20:23:25.804Z,9.43
2023-04-25T20:26:38.218Z,11.73
2023-04-25T20:29:51.295Z,10.93
2023-04-25T20:33:04.083Z,14.18
2023-04-25T20:36:16.744Z,12.75
2023-04-25T20:39:29.314Z,8.88
2023-04-25T20:42:42.043Z,9.60
2023-04-25T20:45:54.916Z,8.10
2023-04-25T20:49:07.739Z,8.63
2023-04-25T20:52:20.032Z,8.00
2023-04-25T20:55:32.674Z,8.88
2023-04-25T20:58:45.061Z,10.13
2023-04-25T21:01:58.537Z,7.97
2023-04-25T21:05:10.918Z,32.45
2023-04-25T21:08:23.534Z,20.67
2023-04-25T21:11:36.247Z,17.20
2023-04-25T21:14:48.877Z,14.35
2023-04-25T21:18:01.966Z,7.53
2023-04-25T21:21:14.778Z,9.68
2023-04-25T21:24:27.431Z,11.63
2023-04-25T21:27:40.115Z,9.95
2023-04-25T21:30:52.616Z,9.48
2023-04-25T21:34:07.178Z,7.30
2023-04-25T21:37:19.571Z,10.85
2023-04-25T21:40:32.230Z,9.48
2023-04-25T21:43:45.132Z,8.43
2023-04-25T21:46:57.822Z,9.30
2023-04-25T21:50:11.159Z,8.55
2023-04-25T21:53:26.378Z,10.82
2023-04-25T21:56:38.781Z,9.32
2023-04-25T21:59:51.414Z,9.52
2023-04-25T22:03:04.121Z,10.13
2023-04-25T22:06:16.837Z,9.52
2023-04-25T22:09:29.268Z,9.05
2023-04-25T22:12:41.939Z,9.13
2023-04-25T22:15:54.535Z,9.98
2023-04-25T22:19:08.083Z,9.85
2023-04-25T22:22:20.961Z,9.32
2023-04-25T22:25:33.719Z,12.77
2023-04-25T22:28:46.694Z,10.25
2023-04-25T22:31:59.412Z,10.60
2023-04-25T22:35:12.168Z,10.30
2023-04-25T22:38:24.781Z,8.27
2023-04-25T22:41:37.138Z,9.50
2023-04-25T22:44:49.779Z,9.98
2023-04-25T22:48:02.195Z,8.25
2023-04-25T22:51:17.122Z,9.70
2023-04-25T22:54:29.479Z,8.00
2023-04-25T22:57:42.473Z,8.80
2023-04-25T23:00:54.859Z,9.80
2023-04-25T23:04:07.983Z,7.97
2023-04-25T23:07:20.818Z,10.15
2023-04-25T23:10:33.445Z,8.70
2023-04-25T23:13:46.278Z,9.98
2023-04-25T23:17:00.361Z,7.80
2023-04-25T23:20:13.387Z,8.23
2023-04-25T23:23:26.178Z,9.02
2023-04-25T23:26:38.553Z,8.80
2023-04-25T23:29:56.195Z,9.65
2023-04-25T23:36:21.584Z,8.82
2023-04-25T23:39:34.089Z,9.70
2023-04-25T23:42:46.868Z,10.70
2023-04-25T23:45:59.253Z,8.60
2023-04-25T23:49:11.933Z,12.00
2023-04-25T23:52:24.329Z,8.15
2023-04-25T23:55:37.006Z,9.60
2023-04-25T23:58:50.054Z,9.50
